sensor_id;sensor_type;location;lat;lon;timestamp;pressure;altitude;pressure_sealevel;temperature;humidity
42105;BME280;70664;51.472;5.712;2023-06-22T00:00:59;101685.63;;;23.94;56.10
42105;BME280;70664;51.472;5.712;2023-06-22T00:03:26;101690.78;;;23.96;55.97
42105;BME280;70664;51.472;5.712;2023-06-22T00:05:52;101705.72;;;23.95;55.68
42105;BME280;70664;51.472;5.712;2023-06-22T00:08:19;101703.13;;;23.93;56.16
42105;BME280;70664;51.472;5.712;2023-06-22T00:10:46;101702.28;;;23.93;56.20
42105;BME280;70664;51.472;5.712;2023-06-22T00:13:13;101704.84;;;23.94;56.48
42105;BME280;70664;51.472;5.712;2023-06-22T00:15:41;101703.13;;;23.93;56.03
42105;BME280;70664;51.472;5.712;2023-06-22T00:18:08;101700.50;;;23.93;56.24
42105;BME280;70664;51.472;5.712;2023-06-22T00:20:35;101697.03;;;23.93;55.93
42105;BME280;70664;51.472;5.712;2023-06-22T00:23:04;101695.31;;;23.92;56.36
42105;BME280;70664;51.472;5.712;2023-06-22T00:25:38;101696.16;;;23.92;55.89
42105;BME280;70664;51.472;5.712;2023-06-22T00:28:06;101702.28;;;23.93;56.09
42105;BME280;70664;51.472;5.712;2023-06-22T00:30:33;101703.22;;;23.92;55.92
42105;BME280;70664;51.472;5.712;2023-06-22T00:33:00;101704.03;;;23.92;56.00
42105;BME280;70664;51.472;5.712;2023-06-22T00:35:26;101700.56;;;23.92;56.40
42105;BME280;70664;51.472;5.712;2023-06-22T00:37:59;101698.00;;;23.90;55.87
42105;BME280;70664;51.472;5.712;2023-06-22T00:40:28;101696.16;;;23.92;56.15
42105;BME280;70664;51.472;5.712;2023-06-22T00:42:54;101693.63;;;23.91;56.41
42105;BME280;70664;51.472;5.712;2023-06-22T00:45:22;101687.50;;;23.90;56.10
42105;BME280;70664;51.472;5.712;2023-06-22T00:47:53;101682.25;;;23.90;56.26
42105;BME280;70664;51.472;5.712;2023-06-22T00:50:25;101689.28;;;23.90;56.07
42105;BME280;70664;51.472;5.712;2023-06-22T00:52:54;101681.41;;;23.90;56.23
42105;BME280;70664;51.472;5.712;2023-06-22T00:55:22;101686.66;;;23.90;56.27
42105;BME280;70664;51.472;5.712;2023-06-22T00:57:49;101683.16;;;23.89;56.42
42105;BME280;70664;51.472;5.712;2023-06-22T01:00:16;101677.06;;;23.89;56.08
42105;BME280;70664;51.472;5.712;2023-06-22T01:02:43;101681.44;;;23.88;56.34
42105;BME280;70664;51.472;5.712;2023-06-22T01:05:16;101679.69;;;23.89;56.10
42105;BME280;70664;51.472;5.712;2023-06-22T01:10:52;101670.09;;;23.88;55.96
42105;BME280;70664;51.472;5.712;2023-06-22T01:13:49;101674.47;;;23.87;56.10
42105;BME280;70664;51.472;5.712;2023-06-22T01:16:26;101668.38;;;23.87;56.38
42105;BME280;70664;51.472;5.712;2023-06-22T01:18:57;101668.38;;;23.87;56.40
42105;BME280;70664;51.472;5.712;2023-06-22T01:21:29;101671.00;;;23.87;56.29
42105;BME280;70664;51.472;5.712;2023-06-22T01:24:24;101672.75;;;23.86;56.39
42105;BME280;70664;51.472;5.712;2023-06-22T01:29:59;101680.66;;;23.86;56.25
42105;BME280;70664;51.472;5.712;2023-06-22T01:32:34;101683.28;;;23.86;56.22
42105;BME280;70664;51.472;5.712;2023-06-22T01:35:04;101671.94;;;23.86;56.28
42105;BME280;70664;51.472;5.712;2023-06-22T01:37:33;101678.00;;;23.86;56.50
42105;BME280;70664;51.472;5.712;2023-06-22T01:40:01;101670.13;;;23.86;56.48
42105;BME280;70664;51.472;5.712;2023-06-22T01:42:28;101670.13;;;23.86;56.26
42105;BME280;70664;51.472;5.712;2023-06-22T01:44:54;101664.09;;;23.84;56.58
42105;BME280;70664;51.472;5.712;2023-06-22T01:47:24;101669.41;;;23.83;56.32
42105;BME280;70664;51.472;5.712;2023-06-22T01:49:51;101672.84;;;23.85;56.24
42105;BME280;70664;51.472;5.712;2023-06-22T01:52:18;101673.75;;;23.84;56.29
42105;BME280;70664;51.472;5.712;2023-06-22T01:54:44;101666.72;;;23.84;56.39
42105;BME280;70664;51.472;5.712;2023-06-22T01:57:10;101668.56;;;23.82;56.41
42105;BME280;70664;51.472;5.712;2023-06-22T01:59:59;101669.41;;;23.83;56.30
42105;BME280;70664;51.472;5.712;2023-06-22T02:02:32;101663.25;;;23.84;56.61
42105;BME280;70664;51.472;5.712;2023-06-22T02:05:12;101663.31;;;23.82;56.64
42105;BME280;70664;51.472;5.712;2023-06-22T02:07:52;101654.56;;;23.82;56.29
42105;BME280;70664;51.472;5.712;2023-06-22T02:10:20;101651.94;;;23.82;56.58
42105;BME280;70664;51.472;5.712;2023-06-22T02:12:47;101648.50;;;23.81;56.58
42105;BME280;70664;51.472;5.712;2023-06-22T02:15:13;101646.78;;;23.80;56.37
42105;BME280;70664;51.472;5.712;2023-06-22T02:17:40;101652.88;;;23.81;56.21
42105;BME280;70664;51.472;5.712;2023-06-22T02:20:13;101651.09;;;23.81;56.56
42105;BME280;70664;51.472;5.712;2023-06-22T02:22:40;101644.16;;;23.80;56.40
42105;BME280;70664;51.472;5.712;2023-06-22T02:25:06;101648.53;;;23.79;56.50
42105;BME280;70664;51.472;5.712;2023-06-22T02:27:32;101640.66;;;23.79;56.70
42105;BME280;70664;51.472;5.712;2023-06-22T02:29:58;101642.44;;;23.79;56.67
42105;BME280;70664;51.472;5.712;2023-06-22T02:32:23;101645.91;;;23.79;56.58
42105;BME280;70664;51.472;5.712;2023-06-22T02:34:49;101639.81;;;23.79;56.67
42105;BME280;70664;51.472;5.712;2023-06-22T02:37:16;101637.19;;;23.79;56.43
42105;BME280;70664;51.472;5.712;2023-06-22T02:39:42;101631.94;;;23.79;56.70
42105;BME280;70664;51.472;5.712;2023-06-22T02:42:08;101631.03;;;23.80;56.59
42105;BME280;70664;51.472;5.712;2023-06-22T02:44:36;101630.22;;;23.78;56.54
42105;BME280;70664;51.472;5.712;2023-06-22T02:47:02;101625.88;;;23.77;56.80
42105;BME280;70664;51.472;5.712;2023-06-22T02:49:28;101624.09;;;23.77;56.79
42105;BME280;70664;51.472;5.712;2023-06-22T02:51:54;101627.63;;;23.76;56.80
42105;BME280;70664;51.472;5.712;2023-06-22T02:54:21;101628.50;;;23.77;56.68
42105;BME280;70664;51.472;5.712;2023-06-22T02:56:46;101629.34;;;23.77;56.71
42105;BME280;70664;51.472;5.712;2023-06-22T02:59:13;101636.38;;;23.77;57.00
42105;BME280;70664;51.472;5.712;2023-06-22T03:01:39;101629.44;;;23.76;57.00
42105;BME280;70664;51.472;5.712;2023-06-22T03:04:09;101630.28;;;23.76;56.77
42105;BME280;70664;51.472;5.712;2023-06-22T03:06:36;101624.19;;;23.76;57.18
42105;BME280;70664;51.472;5.712;2023-06-22T03:09:05;101625.94;;;23.75;57.03
42105;BME280;70664;51.472;5.712;2023-06-22T03:11:32;101623.31;;;23.75;57.39
42105;BME280;70664;51.472;5.712;2023-06-22T03:13:59;101598.84;;;23.75;57.29
42105;BME280;70664;51.472;5.712;2023-06-22T03:16:25;101610.19;;;23.75;57.27
42105;BME280;70664;51.472;5.712;2023-06-22T03:18:51;101621.59;;;23.74;56.82
42105;BME280;70664;51.472;5.712;2023-06-22T03:21:19;101604.13;;;23.73;57.19
42105;BME280;70664;51.472;5.712;2023-06-22T03:23:45;101607.63;;;23.74;56.92
42105;BME280;70664;51.472;5.712;2023-06-22T03:26:11;101600.59;;;23.74;57.18
42105;BME280;70664;51.472;5.712;2023-06-22T03:28:38;101598.03;;;23.73;56.79
42105;BME280;70664;51.472;5.712;2023-06-22T03:31:04;101593.63;;;23.73;57.41
42105;BME280;70664;51.472;5.712;2023-06-22T03:33:32;101595.41;;;23.73;56.73
42105;BME280;70664;51.472;5.712;2023-06-22T03:35:58;101586.66;;;23.72;56.95
42105;BME280;70664;51.472;5.712;2023-06-22T03:38:23;101583.19;;;23.72;57.08
42105;BME280;70664;51.472;5.712;2023-06-22T03:40:49;101590.16;;;23.73;57.39
42105;BME280;70664;51.472;5.712;2023-06-22T03:43:15;101588.50;;;23.70;57.35
42105;BME280;70664;51.472;5.712;2023-06-22T03:45:41;101590.22;;;23.71;57.12
42105;BME280;70664;51.472;5.712;2023-06-22T03:48:07;101588.50;;;23.70;57.49
42105;BME280;70664;51.472;5.712;2023-06-22T03:50:33;101585.81;;;23.72;57.23
42105;BME280;70664;51.472;5.712;2023-06-22T03:52:58;101590.22;;;23.71;56.84
42105;BME280;70664;51.472;5.712;2023-06-22T03:55:24;101587.66;;;23.70;57.09
42105;BME280;70664;51.472;5.712;2023-06-22T03:57:50;101584.13;;;23.71;57.27
42105;BME280;70664;51.472;5.712;2023-06-22T04:00:16;101581.50;;;23.71;57.09
42105;BME280;70664;51.472;5.712;2023-06-22T04:02:42;101585.03;;;23.70;57.03
42105;BME280;70664;51.472;5.712;2023-06-22T04:05:09;101578.00;;;23.70;57.13
42105;BME280;70664;51.472;5.712;2023-06-22T04:07:35;101581.56;;;23.69;57.16
42105;BME280;70664;51.472;5.712;2023-06-22T04:10:05;101574.53;;;23.70;57.20
42105;BME280;70664;51.472;5.712;2023-06-22T04:12:31;101586.81;;;23.69;57.09
42105;BME280;70664;51.472;5.712;2023-06-22T04:14:56;101569.34;;;23.68;57.51
42105;BME280;70664;51.472;5.712;2023-06-22T04:17:22;101576.31;;;23.69;57.04
42105;BME280;70664;51.472;5.712;2023-06-22T04:19:51;101574.59;;;23.68;57.12
42105;BME280;70664;51.472;5.712;2023-06-22T04:22:17;101570.19;;;23.69;57.30
42105;BME280;70664;51.472;5.712;2023-06-22T04:24:44;101571.06;;;23.69;57.22
42105;BME280;70664;51.472;5.712;2023-06-22T04:27:09;101575.44;;;23.69;57.15
42105;BME280;70664;51.472;5.712;2023-06-22T04:29:35;101577.22;;;23.68;57.25
42105;BME280;70664;51.472;5.712;2023-06-22T04:32:01;101572.91;;;23.67;56.91
42105;BME280;70664;51.472;5.712;2023-06-22T04:34:30;101571.13;;;23.68;57.08
42105;BME280;70664;51.472;5.712;2023-06-22T04:36:56;101577.22;;;23.68;56.84
42105;BME280;70664;51.472;5.712;2023-06-22T04:39:22;101578.06;;;23.69;56.59
42105;BME280;70664;51.472;5.712;2023-06-22T04:41:49;101577.22;;;23.68;57.06
42105;BME280;70664;51.472;5.712;2023-06-22T04:44:19;101580.69;;;23.69;57.20
42105;BME280;70664;51.472;5.712;2023-06-22T04:46:57;101575.44;;;23.69;56.67
42105;BME280;70664;51.472;5.712;2023-06-22T04:49:28;101583.31;;;23.69;56.60
42105;BME280;70664;51.472;5.712;2023-06-22T04:52:07;101579.78;;;23.70;56.78
42105;BME280;70664;51.472;5.712;2023-06-22T04:54:34;101573.69;;;23.69;56.66
42105;BME280;70664;51.472;5.712;2023-06-22T04:57:06;101579.78;;;23.70;56.49
42105;BME280;70664;51.472;5.712;2023-06-22T04:59:36;101571.06;;;23.69;57.05
42105;BME280;70664;51.472;5.712;2023-06-22T05:02:05;101571.97;;;23.68;56.58
42105;BME280;70664;51.472;5.712;2023-06-22T05:04:34;101563.19;;;23.69;56.88
42105;BME280;70664;51.472;5.712;2023-06-22T05:07:04;101571.06;;;23.69;56.60
42105;BME280;70664;51.472;5.712;2023-06-22T05:09:30;101571.06;;;23.69;57.14
42105;BME280;70664;51.472;5.712;2023-06-22T05:11:56;101566.66;;;23.70;56.96
42105;BME280;70664;51.472;5.712;2023-06-22T05:14:22;101574.53;;;23.70;56.46
42105;BME280;70664;51.472;5.712;2023-06-22T05:16:50;101574.53;;;23.70;56.82
42105;BME280;70664;51.472;5.712;2023-06-22T05:19:17;101576.25;;;23.71;56.80
42105;BME280;70664;51.472;5.712;2023-06-22T05:21:43;101574.53;;;23.70;56.78
42105;BME280;70664;51.472;5.712;2023-06-22T05:24:09;101578.88;;;23.71;56.80
42105;BME280;70664;51.472;5.712;2023-06-22T05:26:35;101578.06;;;23.69;56.82
42105;BME280;70664;51.472;5.712;2023-06-22T05:29:03;101587.66;;;23.70;56.68
42105;BME280;70664;51.472;5.712;2023-06-22T05:31:29;101585.03;;;23.70;56.42
42105;BME280;70664;51.472;5.712;2023-06-22T05:33:56;101587.59;;;23.71;56.62
42105;BME280;70664;51.472;5.712;2023-06-22T05:36:22;101583.25;;;23.70;56.91
42105;BME280;70664;51.472;5.712;2023-06-22T05:38:51;101584.19;;;23.69;56.79
42105;BME280;70664;51.472;5.712;2023-06-22T05:41:18;101581.56;;;23.69;56.60
42105;BME280;70664;51.472;5.712;2023-06-22T05:43:43;101585.03;;;23.70;56.79
42105;BME280;70664;51.472;5.712;2023-06-22T05:46:09;101583.31;;;23.69;56.91
42105;BME280;70664;51.472;5.712;2023-06-22T05:48:35;101581.56;;;23.69;56.59
42105;BME280;70664;51.472;5.712;2023-06-22T05:51:01;101583.31;;;23.69;56.88
42105;BME280;70664;51.472;5.712;2023-06-22T05:53:27;101584.19;;;23.69;56.59
42105;BME280;70664;51.472;5.712;2023-06-22T05:55:53;101583.31;;;23.69;56.91
42105;BME280;70664;51.472;5.712;2023-06-22T05:58:18;101586.88;;;23.68;57.03
42105;BME280;70664;51.472;5.712;2023-06-22T06:00:45;101576.38;;;23.68;56.55
42105;BME280;70664;51.472;5.712;2023-06-22T06:03:12;101582.47;;;23.68;57.04
42105;BME280;70664;51.472;5.712;2023-06-22T06:05:38;101585.94;;;23.69;56.67
42105;BME280;70664;51.472;5.712;2023-06-22T06:08:06;101581.63;;;23.68;56.95
42105;BME280;70664;51.472;5.712;2023-06-22T06:10:33;101585.94;;;23.69;56.90
42105;BME280;70664;51.472;5.712;2023-06-22T06:12:59;101584.31;;;23.66;57.58
42105;BME280;70664;51.472;5.712;2023-06-22T06:15:28;101589.56;;;23.66;57.89
42105;BME280;70664;51.472;5.712;2023-06-22T06:17:54;101581.72;;;23.64;58.10
42105;BME280;70664;51.472;5.712;2023-06-22T06:20:25;101586.06;;;23.66;58.28
42105;BME280;70664;51.472;5.712;2023-06-22T06:22:51;101577.47;;;23.62;58.80
42105;BME280;70664;51.472;5.712;2023-06-22T06:25:18;101584.47;;;23.61;58.75
42105;BME280;70664;51.472;5.712;2023-06-22T06:27:50;101580.94;;;23.62;58.53
42105;BME280;70664;51.472;5.712;2023-06-22T06:30:18;101576.59;;;23.61;59.08
42105;BME280;70664;51.472;5.712;2023-06-22T06:32:45;101573.13;;;23.61;59.17
42105;BME280;70664;51.472;5.712;2023-06-22T06:35:13;101577.50;;;23.60;59.74
42105;BME280;70664;51.472;5.712;2023-06-22T06:37:42;101574.06;;;23.60;59.40
42105;BME280;70664;51.472;5.712;2023-06-22T06:40:11;101567.94;;;23.59;59.50
42105;BME280;70664;51.472;5.712;2023-06-22T06:42:42;101574.09;;;23.58;59.40
42105;BME280;70664;51.472;5.712;2023-06-22T06:45:19;101568.00;;;23.58;59.51
42105;BME280;70664;51.472;5.712;2023-06-22T06:47:46;101575.88;;;23.58;59.56
42105;BME280;70664;51.472;5.712;2023-06-22T06:50:12;101578.50;;;23.58;59.26
42105;BME280;70664;51.472;5.712;2023-06-22T06:52:39;101575.88;;;23.58;59.55
42105;BME280;70664;51.472;5.712;2023-06-22T06:55:05;101572.38;;;23.57;59.67
42105;BME280;70664;51.472;5.712;2023-06-22T06:57:38;101568.06;;;23.56;59.67
42105;BME280;70664;51.472;5.712;2023-06-22T07:00:06;101574.16;;;23.57;59.62
42105;BME280;70664;51.472;5.712;2023-06-22T07:02:42;101571.75;;;23.52;59.52
42105;BME280;70664;51.472;5.712;2023-06-22T07:05:09;101574.66;;;23.44;59.95
42105;BME280;70664;51.472;5.712;2023-06-22T07:07:35;101573.84;;;23.42;60.48
42105;BME280;70664;51.472;5.712;2023-06-22T07:10:01;101568.78;;;23.38;60.35
42105;BME280;70664;51.472;5.712;2023-06-22T07:12:28;101567.84;;;23.40;60.39
42105;BME280;70664;51.472;5.712;2023-06-22T07:17:28;101566.25;;;23.36;60.72
42105;BME280;70664;51.472;5.712;2023-06-22T07:19:54;101564.56;;;23.33;60.83
42105;BME280;70664;51.472;5.712;2023-06-22T07:22:20;101559.28;;;23.35;60.73
42105;BME280;70664;51.472;5.712;2023-06-22T07:24:46;101542.66;;;23.34;60.71
42105;BME280;70664;51.472;5.712;2023-06-22T07:27:12;101540.00;;;23.36;60.93
42105;BME280;70664;51.472;5.712;2023-06-22T07:29:38;101542.66;;;23.34;60.71
42105;BME280;70664;51.472;5.712;2023-06-22T07:32:06;101538.28;;;23.35;60.94
42105;BME280;70664;51.472;5.712;2023-06-22T07:34:32;101545.25;;;23.36;61.27
42105;BME280;70664;51.472;5.712;2023-06-22T07:36:59;101538.22;;;23.37;61.01
42105;BME280;70664;51.472;5.712;2023-06-22T07:39:25;101533.88;;;23.36;61.14
42105;BME280;70664;51.472;5.712;2023-06-22T07:41:52;101536.47;;;23.37;60.93
42105;BME280;70664;51.472;5.712;2023-06-22T07:44:18;101530.41;;;23.35;61.06
42105;BME280;70664;51.472;5.712;2023-06-22T07:46:44;101533.03;;;23.35;61.00
42105;BME280;70664;51.472;5.712;2023-06-22T07:49:10;101527.72;;;23.37;60.85
42105;BME280;70664;51.472;5.712;2023-06-22T07:51:35;101517.34;;;23.33;60.98
42105;BME280;70664;51.472;5.712;2023-06-22T07:54:01;101518.13;;;23.36;61.02
42105;BME280;70664;51.472;5.712;2023-06-22T07:56:27;101505.09;;;23.34;61.02
42105;BME280;70664;51.472;5.712;2023-06-22T07:58:53;101503.28;;;23.36;61.29
42105;BME280;70664;51.472;5.712;2023-06-22T08:01:19;101492.78;;;23.36;61.05
42105;BME280;70664;51.472;5.712;2023-06-22T08:03:48;101484.03;;;23.36;61.31
42105;BME280;70664;51.472;5.712;2023-06-22T08:06:14;101481.47;;;23.34;61.43
42105;BME280;70664;51.472;5.712;2023-06-22T08:08:40;101481.47;;;23.34;61.35
42105;BME280;70664;51.472;5.712;2023-06-22T08:11:08;101466.53;;;23.36;61.52
42105;BME280;70664;51.472;5.712;2023-06-22T08:13:34;101466.53;;;23.36;61.64
42105;BME280;70664;51.472;5.712;2023-06-22T08:16:00;101463.03;;;23.36;61.26
42105;BME280;70664;51.472;5.712;2023-06-22T08:18:26;101462.13;;;23.37;61.47
42105;BME280;70664;51.472;5.712;2023-06-22T08:20:52;101464.75;;;23.37;61.41
42105;BME280;70664;51.472;5.712;2023-06-22T08:23:18;101461.22;;;23.38;61.24
42105;BME280;70664;51.472;5.712;2023-06-22T08:25:44;101457.66;;;23.39;61.50
42105;BME280;70664;51.472;5.712;2023-06-22T08:28:10;101458.47;;;23.41;61.92
42105;BME280;70664;51.472;5.712;2023-06-22T08:30:36;101468.13;;;23.40;61.57
42105;BME280;70664;51.472;5.712;2023-06-22T08:33:02;101449.00;;;23.37;61.71
42105;BME280;70664;51.472;5.712;2023-06-22T08:35:28;101449.75;;;23.40;61.69
42105;BME280;70664;51.472;5.712;2023-06-22T08:37:54;101449.75;;;23.40;61.81
42105;BME280;70664;51.472;5.712;2023-06-22T08:40:25;101443.72;;;23.38;61.90
42105;BME280;70664;51.472;5.712;2023-06-22T08:42:51;101446.22;;;23.41;62.08
42105;BME280;70664;51.472;5.712;2023-06-22T08:45:17;101440.09;;;23.41;61.90
42105;BME280;70664;51.472;5.712;2023-06-22T08:47:43;101453.13;;;23.42;61.82
42105;BME280;70664;51.472;5.712;2023-06-22T08:50:10;101450.59;;;23.41;61.93
42105;BME280;70664;51.472;5.712;2023-06-22T08:52:38;101459.34;;;23.41;62.22
42105;BME280;70664;51.472;5.712;2023-06-22T08:55:07;101452.28;;;23.42;61.98
42105;BME280;70664;51.472;5.712;2023-06-22T08:57:34;101457.53;;;23.42;62.69
42105;BME280;70664;51.472;5.712;2023-06-22T09:00:00;101456.63;;;23.43;61.95
42105;BME280;70664;51.472;5.712;2023-06-22T09:02:27;101457.53;;;23.42;61.75
42105;BME280;70664;51.472;5.712;2023-06-22T09:04:57;101451.38;;;23.43;61.88
42105;BME280;70664;51.472;5.712;2023-06-22T09:07:23;101452.28;;;23.42;61.89
42105;BME280;70664;51.472;5.712;2023-06-22T09:09:50;101442.63;;;23.42;61.94
42105;BME280;70664;51.472;5.712;2023-06-22T09:12:20;101438.34;;;23.41;61.47
42105;BME280;70664;51.472;5.712;2023-06-22T09:14:48;101423.44;;;23.42;61.80
42105;BME280;70664;51.472;5.712;2023-06-22T09:17:14;101424.28;;;23.42;61.50
42105;BME280;70664;51.472;5.712;2023-06-22T09:19:39;101425.13;;;23.43;61.74
42105;BME280;70664;51.472;5.712;2023-06-22T09:22:05;101426.06;;;23.42;62.06
42105;BME280;70664;51.472;5.712;2023-06-22T09:24:32;101430.38;;;23.43;61.71
42105;BME280;70664;51.472;5.712;2023-06-22T09:26:58;101432.16;;;23.42;61.75
42105;BME280;70664;51.472;5.712;2023-06-22T09:29:25;101431.22;;;23.43;61.88
42105;BME280;70664;51.472;5.712;2023-06-22T09:31:50;101424.22;;;23.44;61.75
42105;BME280;70664;51.472;5.712;2023-06-22T09:34:19;101413.78;;;23.42;61.60
42105;BME280;70664;51.472;5.712;2023-06-22T09:36:46;101418.09;;;23.43;61.61
42105;BME280;70664;51.472;5.712;2023-06-22T09:39:12;101422.50;;;23.43;61.89
42105;BME280;70664;51.472;5.712;2023-06-22T09:41:38;101417.28;;;23.43;61.74
42105;BME280;70664;51.472;5.712;2023-06-22T09:44:04;101420.72;;;23.43;61.82
42105;BME280;70664;51.472;5.712;2023-06-22T09:46:30;101418.09;;;23.43;61.93
42105;BME280;70664;51.472;5.712;2023-06-22T09:48:56;101419.75;;;23.46;62.19
42105;BME280;70664;51.472;5.712;2023-06-22T09:51:23;101418.06;;;23.45;62.12
42105;BME280;70664;51.472;5.712;2023-06-22T09:53:50;101417.19;;;23.44;62.20
42105;BME280;70664;51.472;5.712;2023-06-22T09:56:16;101408.47;;;23.44;62.20
42105;BME280;70664;51.472;5.712;2023-06-22T09:58:43;101407.59;;;23.43;62.01
42105;BME280;70664;51.472;5.712;2023-06-22T10:01:09;101408.47;;;23.44;62.20
42105;BME280;70664;51.472;5.712;2023-06-22T10:03:36;101414.56;;;23.44;62.00
42105;BME280;70664;51.472;5.712;2023-06-22T10:06:03;101407.56;;;23.45;61.93
42105;BME280;70664;51.472;5.712;2023-06-22T10:08:29;101402.31;;;23.45;62.26
42105;BME280;70664;51.472;5.712;2023-06-22T10:10:54;101407.56;;;23.45;62.16
42105;BME280;70664;51.472;5.712;2023-06-22T10:13:20;101392.72;;;23.44;62.01
42105;BME280;70664;51.472;5.712;2023-06-22T10:15:46;101394.50;;;23.43;62.33
42105;BME280;70664;51.472;5.712;2023-06-22T10:18:17;101400.53;;;23.45;62.32
42105;BME280;70664;51.472;5.712;2023-06-22T10:20:43;101415.44;;;23.45;62.37
42105;BME280;70664;51.472;5.712;2023-06-22T10:23:09;101408.41;;;23.45;61.91
42105;BME280;70664;51.472;5.712;2023-06-22T10:25:35;101410.09;;;23.46;62.04
42105;BME280;70664;51.472;5.712;2023-06-22T10:28:01;101406.66;;;23.46;61.96
42105;BME280;70664;51.472;5.712;2023-06-22T10:30:27;101420.59;;;23.46;62.46
42105;BME280;70664;51.472;5.712;2023-06-22T10:32:54;101414.53;;;23.46;62.41
42105;BME280;70664;51.472;5.712;2023-06-22T10:35:20;101419.81;;;23.44;62.89
42105;BME280;70664;51.472;5.712;2023-06-22T10:37:46;101427.69;;;23.44;62.96
42105;BME280;70664;51.472;5.712;2023-06-22T10:40:14;101425.97;;;23.43;62.80
42105;BME280;70664;51.472;5.712;2023-06-22T10:42:41;101419.81;;;23.44;62.20
42105;BME280;70664;51.472;5.712;2023-06-22T10:45:08;101422.38;;;23.46;62.56
42105;BME280;70664;51.472;5.712;2023-06-22T10:47:35;101425.06;;;23.44;62.71
42105;BME280;70664;51.472;5.712;2023-06-22T10:50:02;101433.69;;;23.48;63.47
42105;BME280;70664;51.472;5.712;2023-06-22T10:52:27;101432.88;;;23.46;63.61
42105;BME280;70664;51.472;5.712;2023-06-22T10:54:53;101432.94;;;23.44;64.02
42105;BME280;70664;51.472;5.712;2023-06-22T10:57:19;101453.94;;;23.44;64.62
42105;BME280;70664;51.472;5.712;2023-06-22T10:59:45;101452.28;;;23.42;64.87
42105;BME280;70664;51.472;5.712;2023-06-22T11:02:11;101456.63;;;23.43;65.25
42105;BME280;70664;51.472;5.712;2023-06-22T11:04:37;101449.59;;;23.43;66.01
42105;BME280;70664;51.472;5.712;2023-06-22T11:07:02;101458.38;;;23.42;67.10
42105;BME280;70664;51.472;5.712;2023-06-22T11:09:28;101470.75;;;23.40;67.37
42105;BME280;70664;51.472;5.712;2023-06-22T11:11:55;101463.78;;;23.39;68.43
42105;BME280;70664;51.472;5.712;2023-06-22T11:14:22;101458.47;;;23.41;67.95
42105;BME280;70664;51.472;5.712;2023-06-22T11:16:48;101457.78;;;23.36;68.44
42105;BME280;70664;51.472;5.712;2023-06-22T11:19:14;101456.88;;;23.37;68.96
42105;BME280;70664;51.472;5.712;2023-06-22T11:21:40;101455.84;;;23.41;68.22
42105;BME280;70664;51.472;5.712;2023-06-22T11:24:06;101462.78;;;23.42;68.70
42105;BME280;70664;51.472;5.712;2023-06-22T11:26:33;101471.47;;;23.44;68.33
42105;BME280;70664;51.472;5.712;2023-06-22T11:28:59;101471.50;;;23.42;68.01
42105;BME280;70664;51.472;5.712;2023-06-22T11:31:25;101487.22;;;23.44;68.44
42105;BME280;70664;51.472;5.712;2023-06-22T11:33:54;101483.72;;;23.43;68.40
42105;BME280;70664;51.472;5.712;2023-06-22T11:36:20;101456.63;;;23.43;67.99
42105;BME280;70664;51.472;5.712;2023-06-22T11:38:45;101452.22;;;23.43;68.31
42105;BME280;70664;51.472;5.712;2023-06-22T11:41:11;101440.97;;;23.41;68.51
42105;BME280;70664;51.472;5.712;2023-06-22T11:43:37;101420.72;;;23.43;68.03
42105;BME280;70664;51.472;5.712;2023-06-22T11:46:03;101392.78;;;23.42;68.42
42105;BME280;70664;51.472;5.712;2023-06-22T11:48:30;101383.16;;;23.43;67.98
42105;BME280;70664;51.472;5.712;2023-06-22T11:50:56;101363.00;;;23.43;68.14
42105;BME280;70664;51.472;5.712;2023-06-22T11:53:25;101367.19;;;23.47;68.02
42105;BME280;70664;51.472;5.712;2023-06-22T11:55:52;101377.78;;;23.46;67.51
42105;BME280;70664;51.472;5.712;2023-06-22T11:58:19;101384.78;;;23.45;67.31
42105;BME280;70664;51.472;5.712;2023-06-22T12:00:45;101389.19;;;23.45;67.95
42105;BME280;70664;51.472;5.712;2023-06-22T12:03:11;101378.75;;;23.43;67.85
42105;BME280;70664;51.472;5.712;2023-06-22T12:05:38;101380.44;;;23.44;67.70
42105;BME280;70664;51.472;5.712;2023-06-22T12:08:04;101383.94;;;23.45;67.38
42105;BME280;70664;51.472;5.712;2023-06-22T12:10:30;101381.38;;;23.43;67.80
42105;BME280;70664;51.472;5.712;2023-06-22T12:12:56;101383.22;;;23.41;67.68
42105;BME280;70664;51.472;5.712;2023-06-22T12:15:26;101390.91;;;23.46;67.70
42105;BME280;70664;51.472;5.712;2023-06-22T12:17:52;101384.88;;;23.44;67.45
42105;BME280;70664;51.472;5.712;2023-06-22T12:20:18;101368.31;;;23.42;67.91
42105;BME280;70664;51.472;5.712;2023-06-22T12:22:44;101356.91;;;23.43;67.66
42105;BME280;70664;51.472;5.712;2023-06-22T12:25:11;101369.16;;;23.42;67.57
42105;BME280;70664;51.472;5.712;2023-06-22T12:27:37;101375.28;;;23.43;67.41
42105;BME280;70664;51.472;5.712;2023-06-22T12:30:04;101368.31;;;23.42;67.67
42105;BME280;70664;51.472;5.712;2023-06-22T12:32:31;101366.53;;;23.42;67.34
42105;BME280;70664;51.472;5.712;2023-06-22T12:34:57;101374.38;;;23.44;67.39
42105;BME280;70664;51.472;5.712;2023-06-22T12:37:23;101369.16;;;23.42;67.62
42105;BME280;70664;51.472;5.712;2023-06-22T12:39:49;101367.41;;;23.43;67.32
42105;BME280;70664;51.472;5.712;2023-06-22T12:42:16;101356.03;;;23.42;67.57
42105;BME280;70664;51.472;5.712;2023-06-22T12:44:42;101357.72;;;23.45;67.50
42105;BME280;70664;51.472;5.712;2023-06-22T12:47:08;101348.97;;;23.44;67.43
42105;BME280;70664;51.472;5.712;2023-06-22T12:49:35;101345.41;;;23.45;67.51
42105;BME280;70664;51.472;5.712;2023-06-22T12:52:02;101335.84;;;23.44;67.56
42105;BME280;70664;51.472;5.712;2023-06-22T12:54:28;101336.75;;;23.43;67.92
42105;BME280;70664;51.472;5.712;2023-06-22T12:56:55;101340.88;;;23.28;69.64
42105;BME280;70664;51.472;5.712;2023-06-22T12:59:21;101330.69;;;23.20;69.45